Airfield :
LOGIN :

Register | Disclaimer

   EN    FR    IT 

 










Legend :    VFR   Marginal VFR   IFR   Intensive IFR   Very Intensive IFR
Visi :
Ceiling :
>= 8 km
>= 3000ft
5 to 8 km
1000 to 3000 ft
1500m to 5 km
500 to 1000 ft
800 to 1500m
200 to 500 ft
< 800m
< 200 ft
Symbols :   Thunderstorms  Fog  Heavy snow  Heavy precipitations  Wind > 20 kt
SIGMETs :     Misc.  Thunderstorms  Icing  Turbulence  Mountain Waves  Volcanic Ashes







- Airport Elevation : 49 ft
- IATA code : SEN
- Download approach charts


EGMC - Southend

CURRENT METAR :
  • 191150Z 16009KT 9999 FEW027 17/13 Q1004

EXPIRED METARs :
  • 191120Z 15008KT 9999 NSC 16/13 Q1004
  • 191050Z 16010KT 9000 NSC 16/13 Q1004
  • 191020Z 12005KT 080V150 9000 NSC 16/13 Q1005
  • 190950Z 11006KT 080V140 9000 NSC 16/14 Q1005
  • 190920Z 09005KT 6000 NSC 15/14 Q1005

TAF TAF EGMC
Valid from the 19 at 12:00 until the 19 at 21:00 UTC


191115Z 1912/1921 12005KT 9999 FEW020
BECMG 1912/1915 19012KT
TEMPO 1913/1921 6000 -RADZ BKN014
PROB30
TEMPO 1920/1921 20015G25KT 3000 +RA
No reported NOTAMs for that airfield.



MET'MAP, your aeronautical weather chart ! - Copyright ORBIFLY December 2007 - Disclaimer

ORBIFLY MET'MAP TEAM :

Programming & Development : Alexandra Zaïnal
Concept & Development : Baudouin d'Aumeries
Co-Development & Prog : Marc-Olivier Méhu
Technical & hardware support : Manuel Goepfert

Contact : metmap@orbifly.com




SOURCES & CREDITS :

   NOAA